Time;durP1;ratioP1;P1;durP2;ratioP2;P2;SDS_P1;SDS_P2;PMS_P1;PMS_P2;Temp;Humidity;BMP_temperature;BMP_pressure;BME280_temperature;BME280_humidity;BME280_pressure;Samples;Min_cycle;Max_cycle;Signal;HPM_P1;HPM_P2
2022/03/30 00:01:11;;;;;;;15.23;9.25;;;;;;;12.77;67.94;100945.75;5095405;28;20038;-82
2022/03/30 00:03:37;;;;;;;11.23;8.90;;;;;;;12.69;68.15;100931.38;5110196;28;20035;-82
2022/03/30 00:06:04;;;;;;;11.93;8.80;;;;;;;12.76;68.06;100936.09;5102269;28;20077;-82
2022/03/30 00:08:30;;;;;;;11.73;9.02;;;;;;;12.61;67.84;100911.75;5107515;28;20481;-82
2022/03/30 00:10:56;;;;;;;;;;;;;;;12.80;67.45;100940.63;5100966;28;20039;-82
2022/03/30 00:13:22;;;;;;;10.15;8.13;;;;;;;12.63;68.21;100915.34;5096925;28;20004;-82
2022/03/30 00:15:47;;;;;;;10.73;8.75;;;;;;;12.76;68.14;100937.81;5107701;28;20111;-82
2022/03/30 00:18:13;;;;;;;11.90;9.10;;;;;;;12.75;67.81;100933.41;5088099;28;20036;-82
2022/03/30 00:20:38;;;;;;;10.43;8.65;;;;;;;12.72;67.78;100922.75;5102992;28;20282;-82
2022/03/30 00:23:05;;;;;;;11.48;8.85;;;;;;;12.74;67.88;100928.97;5101570;28;20043;-82
2022/03/30 00:25:31;;;;;;;12.00;8.85;;;;;;;12.78;67.61;100937.06;5109290;28;20500;-82
2022/03/30 00:27:56;;;;;;;11.98;8.88;;;;;;;12.69;67.48;100912.13;5105193;28;20067;-82
2022/03/30 00:30:22;;;;;;;13.38;9.48;;;;;;;12.71;67.69;100920.97;5112981;28;20047;-81
2022/03/30 00:32:48;;;;;;;11.48;9.15;;;;;;;12.66;67.53;100912.91;5094953;28;20381;-82
2022/03/30 00:35:14;;;;;;;12.45;9.13;;;;;;;12.65;67.51;100908.47;5094798;28;20512;-82
2022/03/30 00:37:40;;;;;;;12.10;8.77;;;;;;;12.79;67.52;100930.09;5095209;28;20516;-82
2022/03/30 00:40:09;;;;;;;11.43;8.77;;;;;;;12.79;67.68;100932.72;5104475;28;20078;-82
2022/03/30 00:42:35;;;;;;;12.68;8.98;;;;;;;12.73;67.60;100919.31;5104792;28;20031;-82
2022/03/30 00:45:08;;;;;;;10.55;8.63;;;;;;;12.62;67.60;100903.09;5105409;28;20055;-83
2022/03/30 00:47:35;;;;;;;11.43;9.32;;;;;;;12.79;67.77;100931.00;5110557;28;20554;-82
2022/03/30 00:50:00;;;;;;;11.60;9.18;;;;;;;12.49;67.93;100870.19;5114254;28;20046;-83
2022/03/30 00:52:26;;;;;;;10.75;8.43;;;;;;;12.78;67.82;100923.97;5095082;28;20501;-83
2022/03/30 00:54:52;;;;;;;11.27;8.68;;;;;;;12.78;67.86;100925.66;5109244;28;20416;-82
2022/03/30 00:57:22;;;;;;;11.70;9.13;;;;;;;12.74;67.95;100919.41;5096218;28;20067;-82
2022/03/30 00:59:48;;;;;;;12.88;9.00;;;;;;;12.71;67.65;100916.63;5101474;28;20028;-82
2022/03/30 01:02:14;;;;;;;12.52;9.32;;;;;;;12.67;68.03;100903.31;5098795;28;20118;-82
2022/03/30 01:04:40;;;;;;;10.98;8.70;;;;;;;12.66;67.57;100896.25;5114388;28;20080;-83
2022/03/30 01:07:05;;;;;;;11.30;8.90;;;;;;;12.66;67.43;100891.94;5107243;28;20031;-83
2022/03/30 01:09:31;;;;;;;14.43;9.20;;;;;;;12.78;67.29;100912.56;5112963;28;20059;-83
2022/03/30 01:11:57;;;;;;;13.35;9.15;;;;;;;12.70;67.74;100891.25;5096431;28;20031;-83
2022/03/30 01:14:23;;;;;;;12.20;8.95;;;;;;;12.76;67.38;100908.97;5095716;28;20106;-83
2022/03/30 01:16:50;;;;;;;10.82;8.88;;;;;;;12.78;67.59;100907.31;5112100;28;20027;-82
2022/03/30 01:19:16;;;;;;;11.68;8.82;;;;;;;12.77;67.31;100911.69;5109096;28;20513;-82
2022/03/30 01:21:46;;;;;;;12.50;9.20;;;;;;;12.77;67.43;100897.69;5098699;28;20110;-83
2022/03/30 01:24:13;;;;;;;14.93;9.18;;;;;;;12.75;67.25;100913.31;5112524;28;20135;-83
2022/03/30 01:26:39;;;;;;;12.40;8.80;;;;;;;12.77;67.54;100898.56;5097981;28;20028;-83
2022/03/30 01:32:25;;;;;;;12.35;9.30;;;;;;;12.69;67.50;100894.69;5109184;28;20088;-83
2022/03/30 01:34:36;;;;;;;12.73;9.10;;;;;;;12.67;67.71;100885.88;5093346;28;20039;-83
2022/03/30 01:37:03;;;;;;;13.25;9.48;;;;;;;12.59;67.74;100871.50;5107956;28;20036;-83
2022/03/30 01:39:28;;;;;;;11.35;9.20;;;;;;;12.62;67.87;100885.66;5108710;28;20118;-83
2022/03/30 01:41:54;;;;;;;13.00;9.15;;;;;;;12.69;67.62;100899.03;5108884;28;20107;-84
2022/03/30 01:44:19;;;;;;;11.75;8.93;;;;;;;12.75;67.70;100909.81;5111931;28;20035;-83
2022/03/30 01:46:45;;;;;;;11.13;8.65;;;;;;;12.71;67.74;100902.63;5093827;28;20059;-83
2022/03/30 01:49:11;;;;;;;12.15;8.98;;;;;;;12.66;67.54;100897.19;5105287;28;20024;-83
2022/03/30 01:51:36;;;;;;;11.85;8.85;;;;;;;12.46;67.48;100866.50;5103799;28;20032;-84
2022/03/30 01:54:02;;;;;;;12.77;9.18;;;;;;;12.65;67.70;100897.09;5091528;28;20169;-83
2022/03/30 01:56:28;;;;;;;10.90;8.50;;;;;;;12.73;67.58;100908.84;5091560;28;20035;-83
2022/03/30 01:58:53;;;;;;;14.20;9.30;;;;;;;12.72;67.61;100902.72;5092904;28;20038;-83
2022/03/30 02:01:20;;;;;;;11.80;8.85;;;;;;;12.66;67.49;100891.94;5091672;28;20031;-83
2022/03/30 02:03:46;;;;;;;11.38;8.82;;;;;;;12.62;67.91;100887.38;5092767;28;20024;-83
2022/03/30 02:06:12;;;;;;;11.75;8.82;;;;;;;12.62;67.70;100890.00;5091417;28;20040;-83
2022/03/30 02:08:38;;;;;;;12.52;9.07;;;;;;;12.65;67.89;100892.75;5094801;28;20059;-83
2022/03/30 02:11:04;;;;;;;11.98;9.00;;;;;;;12.36;67.68;100846.81;5111788;28;20080;-83
2022/03/30 02:13:30;;;;;;;12.18;8.88;;;;;;;12.35;67.68;100839.81;5111662;28;20027;-83
2022/03/30 02:15:55;;;;;;;12.35;9.07;;;;;;;12.46;67.77;100862.16;5111639;28;20044;-83
2022/03/30 02:18:21;;;;;;;12.98;8.95;;;;;;;12.53;67.49;100884.31;5112928;28;20035;-82
2022/03/30 02:20:47;;;;;;;11.30;8.55;;;;;;;12.71;67.70;100916.63;5111694;28;20020;-83
2022/03/30 02:23:12;;;;;;;10.60;8.13;;;;;;;12.58;67.85;100894.19;5111618;28;20088;-83
2022/03/30 02:25:38;;;;;;;9.38;7.72;;;;;;;12.65;68.09;100910.19;5111350;28;20050;-83
2022/03/30 02:28:04;;;;;;;10.90;8.65;;;;;;;12.37;67.92;100848.63;5111495;28;20053;-83
2022/03/30 02:30:30;;;;;;;11.35;8.80;;;;;;;12.70;67.77;100911.31;5111441;28;20031;-83
2022/03/30 02:32:57;;;;;;;11.07;8.43;;;;;;;12.45;67.89;100869.97;5094405;28;20032;-83
2022/03/30 02:35:23;;;;;;;12.45;8.75;;;;;;;12.61;67.98;100910.06;5111356;28;20507;-83
2022/03/30 02:37:49;;;;;;;11.73;8.57;;;;;;;12.14;67.66;100822.22;5111256;28;20016;-83
2022/03/30 02:40:15;;;;;;;10.57;8.57;;;;;;;12.59;67.68;100908.16;5112533;28;20024;-83
2022/03/30 02:42:40;;;;;;;11.93;8.55;;;;;;;12.60;67.79;100904.75;5112697;28;20028;-83
2022/03/30 02:45:07;;;;;;;10.88;8.35;;;;;;;12.69;67.93;100926.13;5110718;28;20065;-82
2022/03/30 02:50:17;;;;;;;10.90;8.45;;;;;;;12.62;67.91;100910.97;5111392;28;20085;-83
2022/03/30 02:52:42;;;;;;;12.18;8.32;;;;;;;12.62;67.73;100909.22;5111176;28;20027;-83
2022/03/30 02:55:08;;;;;;;10.05;8.25;;;;;;;12.36;68.14;100873.94;5105488;28;20103;-82
2022/03/30 02:57:34;;;;;;;11.48;8.90;;;;;;;12.61;67.98;100928.41;5103130;28;20023;-82
2022/03/30 02:59:59;;;;;;;11.32;8.85;;;;;;;12.57;68.00;100907.19;5105278;28;20039;-82
2022/03/30 03:02:25;;;;;;;12.32;9.05;;;;;;;12.67;67.60;100927.78;5092829;28;20500;-82
2022/03/30 03:04:51;;;;;;;11.95;8.73;;;;;;;12.52;67.84;100896.50;5092622;28;20512;-82
2022/03/30 03:07:17;;;;;;;11.20;8.57;;;;;;;12.55;67.87;100904.53;5102978;28;20027;-82
2022/03/30 03:09:43;;;;;;;11.55;8.40;;;;;;;12.62;67.92;100913.56;5102492;28;20051;-82
2022/03/30 03:12:08;;;;;;;10.68;8.65;;;;;;;12.66;67.76;100914.59;5091804;28;20427;-82
2022/03/30 03:14:34;;;;;;;12.05;8.70;;;;;;;12.46;67.92;100892.69;5099509;28;20503;-83
2022/03/30 03:17:00;;;;;;;10.65;8.20;;;;;;;12.65;68.02;100931.16;5111231;28;20082;-83
2022/03/30 03:19:25;;;;;;;11.35;8.32;;;;;;;12.58;67.72;100909.91;5100773;28;20052;-82
2022/03/30 03:21:51;;;;;;;10.30;8.25;;;;;;;12.54;67.85;100907.97;5107731;28;20059;-82
2022/03/30 03:24:17;;;;;;;11.90;8.82;;;;;;;12.56;68.13;100911.56;5095547;28;20443;-83
2022/03/30 03:26:42;;;;;;;12.25;8.35;;;;;;;12.55;67.72;100911.47;5094195;28;20032;-82
2022/03/30 03:29:08;;;;;;;10.02;8.15;;;;;;;12.60;67.90;100921.34;5098370;28;20047;-82
2022/03/30 03:31:34;;;;;;;10.63;8.48;;;;;;;12.65;68.00;100933.78;5095299;28;20497;-82
2022/03/30 03:33:59;;;;;;;11.23;8.05;;;;;;;12.57;68.28;100923.84;5092498;28;20452;-82
2022/03/30 03:36:25;;;;;;;11.27;8.65;;;;;;;12.65;67.92;100933.78;5098694;28;20040;-82
2022/03/30 03:38:51;;;;;;;10.40;8.18;;;;;;;12.63;67.87;100931.97;5098424;28;20500;-81
2022/03/30 03:41:16;;;;;;;13.07;8.52;;;;;;;12.53;68.01;100916.66;5098978;28;20027;-82
2022/03/30 03:43:42;;;;;;;10.88;8.23;;;;;;;12.50;67.77;100905.13;5111595;28;20027;-81
2022/03/30 03:46:08;;;;;;;11.48;8.38;;;;;;;12.65;67.91;100939.03;5102095;28;20097;-81
2022/03/30 03:48:34;;;;;;;10.15;8.23;;;;;;;12.63;68.30;100944.19;5092406;28;20028;-81
2022/03/30 03:50:59;;;;;;;11.30;8.90;;;;;;;12.61;67.96;100949.38;5103885;28;20421;-82
2022/03/30 03:53:25;;;;;;;11.65;8.38;;;;;;;12.65;67.88;100953.00;5105022;28;20023;-82
2022/03/30 03:55:51;;;;;;;10.13;8.27;;;;;;;12.52;68.14;100932.28;5102086;28;20030;-82
2022/03/30 03:58:17;;;;;;;11.38;8.35;;;;;;;12.55;68.08;100933.34;5097983;28;20040;-81
2022/03/30 04:00:42;;;;;;;11.05;8.18;;;;;;;12.62;67.87;100945.91;5104405;28;20506;-82
2022/03/30 04:03:08;;;;;;;10.50;8.13;;;;;;;12.51;67.80;100928.78;5114428;28;20104;-82
2022/03/30 04:05:34;;;;;;;11.75;8.02;;;;;;;12.62;68.32;100952.88;5111706;28;20435;-82
2022/03/30 04:07:59;;;;;;;12.07;8.90;;;;;;;12.42;68.13;100912.59;5098963;28;20059;-82
2022/03/30 04:10:25;;;;;;;9.98;8.20;;;;;;;12.63;67.82;100957.28;5103736;28;20049;-82
2022/03/30 04:12:51;;;;;;;11.88;8.55;;;;;;;12.48;68.42;100930.34;5115364;28;20150;-82
2022/03/30 04:15:18;;;;;;;10.32;7.88;;;;;;;12.49;67.94;100938.28;5107392;28;20512;-82
2022/03/30 04:17:47;;;;;;;;;;;;;;;12.64;68.09;100961.72;5113067;28;20496;-82
2022/03/30 04:20:14;;;;;;;10.43;8.10;;;;;;;12.62;68.05;100963.34;5113737;28;19922;-82
2022/03/30 04:22:40;;;;;;;11.07;8.52;;;;;;;12.59;67.93;100965.81;5103130;28;20027;-82
2022/03/30 04:25:07;;;;;;;9.73;8.00;;;;;;;12.60;68.20;100965.00;5101582;28;20020;-82
2022/03/30 04:27:32;;;;;;;10.73;8.30;;;;;;;12.58;68.19;100957.06;5101394;28;20477;-82
2022/03/30 04:30:00;;;;;;;11.10;8.38;;;;;;;12.58;67.98;100961.41;5096859;28;20035;-82
2022/03/30 04:32:26;;;;;;;11.10;7.90;;;;;;;12.59;68.05;100960.56;5105912;28;20028;-82
2022/03/30 04:34:52;;;;;;;10.93;8.50;;;;;;;12.61;68.01;100967.69;5093901;28;21153;-82
2022/03/30 04:37:17;;;;;;;9.93;7.82;;;;;;;12.60;68.34;100963.28;5096050;28;20032;-81
2022/03/30 04:39:43;;;;;;;10.23;8.30;;;;;;;12.60;68.17;100971.13;5130704;27;20179;-82
2022/03/30 04:42:09;;;;;;;10.93;8.25;;;;;;;12.53;67.79;100960.25;5131883;27;20043;-82
2022/03/30 04:44:34;;;;;;;10.88;7.88;;;;;;;12.48;67.85;100951.28;5134177;27;20052;-82
2022/03/30 04:47:00;;;;;;;10.95;8.30;;;;;;;12.59;68.35;100977.22;5135052;27;20511;-82
2022/03/30 04:49:26;;;;;;;9.95;8.27;;;;;;;12.59;68.26;100969.34;5121835;27;20481;-83
2022/03/30 04:51:51;;;;;;;10.80;8.05;;;;;;;12.59;68.32;100961.50;5113332;28;20494;-82
2022/03/30 04:54:18;;;;;;;10.02;7.97;;;;;;;12.59;68.06;100974.59;5113404;28;20028;-83
2022/03/30 04:56:45;;;;;;;11.02;8.32;;;;;;;12.53;68.11;100960.25;5110350;28;20462;-83
2022/03/30 04:59:11;;;;;;;9.43;7.90;;;;;;;12.47;68.03;100947.78;5096418;28;20036;-83
2022/03/30 05:01:37;;;;;;;;;;;;;;;12.61;68.03;100969.41;5111830;28;20022;-83
2022/03/30 05:04:06;;;;;;;10.52;8.15;;;;;;;12.54;68.08;100965.59;5114193;28;19908;-83
2022/03/30 05:06:31;;;;;;;10.10;8.20;;;;;;;12.49;67.76;100967.09;5112207;28;20540;-83
2022/03/30 05:08:57;;;;;;;11.60;8.38;;;;;;;12.58;68.29;100975.41;5112510;28;20119;-83
2022/03/30 05:11:23;;;;;;;12.18;8.20;;;;;;;12.58;68.15;100980.63;5113424;28;20020;-83
2022/03/30 05:13:48;;;;;;;11.13;8.30;;;;;;;12.45;68.48;100949.44;5113840;28;20104;-83
2022/03/30 05:16:15;;;;;;;9.82;7.82;;;;;;;12.48;68.14;100957.41;5113581;28;20410;-83
2022/03/30 05:18:41;;;;;;;10.45;8.02;;;;;;;12.22;68.18;100916.88;5112490;28;20528;-82
2022/03/30 05:21:06;;;;;;;9.95;7.78;;;;;;;12.27;68.03;100920.59;5114067;28;20055;-82
2022/03/30 05:23:36;;;;;;;9.77;8.05;;;;;;;12.53;68.40;100968.13;5114162;28;20189;-82
2022/03/30 05:26:03;;;;;;;10.95;8.13;;;;;;;12.57;68.23;100975.31;5108331;27;20035;-83
2022/03/30 05:28:29;;;;;;;10.60;8.20;;;;;;;12.48;68.16;100960.03;5110629;27;20031;-82
2022/03/30 05:30:54;;;;;;;9.35;7.68;;;;;;;12.43;68.19;100959.81;5108862;27;20031;-82
2022/03/30 05:33:20;;;;;;;10.68;8.45;;;;;;;12.50;68.52;100962.75;5092741;28;20047;-83
2022/03/30 05:35:48;;;;;;;9.98;7.53;;;;;;;12.48;68.13;100964.41;5097856;27;20098;-83
2022/03/30 05:38:14;;;;;;;9.48;7.40;;;;;;;12.57;68.40;100973.63;5133129;27;20076;-83
2022/03/30 05:40:40;;;;;;;9.73;7.88;;;;;;;12.41;68.67;100944.88;5113325;27;20421;-81
2022/03/30 05:43:06;;;;;;;;;;;;;;;12.61;68.16;100978.19;5105937;28;20501;-81
2022/03/30 05:45:31;;;;;;;9.50;7.72;;;;;;;12.36;68.49;100933.25;5099159;28;19938;-81
2022/03/30 05:47:57;;;;;;;9.23;7.85;;;;;;;12.52;68.17;100966.34;5098657;28;20027;-81
2022/03/30 05:50:23;;;;;;;10.35;8.07;;;;;;;12.57;68.37;100975.31;5097487;28;20043;-81
2022/03/30 05:52:49;;;;;;;9.18;7.55;;;;;;;12.55;68.36;100977.88;5090083;28;20645;-81
2022/03/30 05:55:15;;;;;;;10.35;7.63;;;;;;;12.58;68.35;100974.50;5093991;28;20148;-80
2022/03/30 05:58:04;;;;;;;12.25;8.68;;;;;;;12.58;68.27;100978.00;5106184;28;20509;-80
2022/03/30 06:00:36;;;;;;;9.88;8.07;;;;;;;12.59;68.50;100981.53;5110238;28;20028;-80
2022/03/30 06:03:05;;;;;;;10.88;8.40;;;;;;;11.95;68.21;100857.06;5103512;28;20058;-80
2022/03/30 06:05:34;;;;;;;9.88;7.57;;;;;;;12.06;68.22;100885.50;5111913;28;20493;-80
2022/03/30 06:08:00;;;;;;;11.00;8.43;;;;;;;12.60;68.19;100984.22;5094724;28;20573;-80
2022/03/30 06:10:29;;;;;;;;;;;;;;;12.63;68.81;100973.00;5083670;28;20032;-81
2022/03/30 06:13:06;;;;;;;26.55;8.40;;;;;;;12.55;69.47;100974.34;5110566;28;20368;-80
2022/03/30 06:15:32;;;;;;;38.30;10.18;;;;;;;12.31;70.37;100934.75;5093344;28;20028;-80
2022/03/30 06:18:00;;;;;;;47.95;14.75;;;;;;;12.83;67.39;100980.13;5094161;28;20566;-80
2022/03/30 06:20:26;;;;;;;42.72;13.73;;;;;;;12.93;66.84;100977.91;5105479;27;20130;-81
2022/03/30 06:23:01;;;;;;;28.63;13.93;;;;;;;12.62;68.16;100981.69;5115687;27;20111;-81
2022/03/30 06:25:30;;;;;;;25.45;11.35;;;;;;;12.65;68.39;100981.81;5100125;28;20028;-81
2022/03/30 06:27:57;;;;;;;32.55;11.25;;;;;;;12.11;68.08;100871.84;5078244;28;20035;-80
2022/03/30 06:30:24;;;;;;;36.40;12.25;;;;;;;12.59;68.41;100950.09;5091939;28;20059;-81
2022/03/30 06:32:51;;;;;;;33.15;12.50;;;;;;;12.62;68.67;100965.97;5107562;28;20077;-81
2022/03/30 06:35:20;;;;;;;25.25;12.55;;;;;;;12.58;68.93;100982.38;5095255;28;20024;-85
2022/03/30 06:37:46;;;;;;;22.33;12.20;;;;;;;12.55;68.68;100980.50;5109888;28;20497;-84
2022/03/30 06:40:14;;;;;;;24.17;12.27;;;;;;;12.58;68.74;100975.41;5097364;28;20489;-85
2022/03/30 06:42:41;;;;;;;25.17;12.63;;;;;;;12.52;68.70;100956.75;5093208;28;20031;-85
2022/03/30 06:45:09;;;;;;;22.30;12.30;;;;;;;12.58;68.77;100975.41;5092285;28;20039;-85
2022/03/30 06:47:38;;;;;;;22.75;11.90;;;;;;;12.48;68.63;100967.00;5076594;28;20032;-85
2022/03/30 06:50:06;;;;;;;22.50;12.50;;;;;;;12.48;69.13;100961.78;5105885;28;20574;-85
2022/03/30 06:52:32;;;;;;;25.55;11.70;;;;;;;12.65;68.53;100971.34;5095484;28;20077;-84
2022/03/30 06:54:59;;;;;;;20.60;11.68;;;;;;;12.52;68.83;100963.72;5093860;28;20036;-83
2022/03/30 06:57:27;;;;;;;22.13;11.65;;;;;;;12.56;68.37;100970.91;5096119;28;20039;-85
2022/03/30 06:59:57;;;;;;;27.15;11.48;;;;;;;12.57;68.29;100968.38;5091295;28;20077;-86
2022/03/30 07:02:23;;;;;;;22.83;11.20;;;;;;;12.35;68.40;100914.03;5092797;28;20040;-85
2022/03/30 07:04:49;;;;;;;20.83;11.32;;;;;;;12.65;68.55;100968.72;5094674;28;20502;-84
2022/03/30 07:10:17;;;;;;;15.43;10.18;;;;;;;12.56;68.28;100950.84;5095062;28;20092;-84
2022/03/30 07:12:47;;;;;;;17.40;10.52;;;;;;;12.64;67.97;100953.84;5111341;27;20023;-83
2022/03/30 07:15:15;;;;;;;25.15;10.88;;;;;;;12.81;68.18;100973.00;5110743;28;20024;-84
2022/03/30 07:17:54;;;;;;;19.10;10.45;;;;;;;12.38;67.81;100897.56;5110023;28;20504;-84
2022/03/30 07:20:22;;;;;;;21.75;10.55;;;;;;;12.83;67.61;100968.75;5097959;28;20027;-85
2022/03/30 07:22:48;;;;;;;18.58;10.35;;;;;;;12.74;67.79;100957.78;5109062;28;20051;-86
2022/03/30 07:25:14;;;;;;;;;;;;;;;12.86;67.48;100976.72;5093886;28;20035;-84
2022/03/30 07:27:44;;;;;;;15.18;10.23;;;;;;;12.82;67.85;100977.41;5092665;28;19927;-85
2022/03/30 07:30:11;;;;;;;17.27;10.75;;;;;;;12.91;67.84;100971.69;5079723;28;20457;-84
2022/03/30 07:32:39;;;;;;;20.80;10.73;;;;;;;12.85;68.02;100982.81;5101949;28;20027;-84
2022/03/30 07:35:09;;;;;;;19.23;10.50;;;;;;;12.82;68.26;100978.28;5101073;28;20024;-84
2022/03/30 07:37:36;;;;;;;16.50;9.98;;;;;;;12.91;67.86;100972.63;5091597;28;20042;-83
2022/03/30 07:40:03;;;;;;;16.90;10.32;;;;;;;12.84;67.95;100962.66;5090108;28;20081;-84
2022/03/30 07:42:29;;;;;;;19.08;10.20;;;;;;;12.93;67.70;100976.22;5096313;28;20611;-84
2022/03/30 07:44:55;;;;;;;17.08;10.40;;;;;;;12.82;68.22;100966.94;5094745;28;20027;-84
2022/03/30 07:47:21;;;;;;;15.40;9.88;;;;;;;12.61;68.00;100935.34;5107573;28;20031;-84
2022/03/30 07:49:47;;;;;;;16.67;9.60;;;;;;;13.07;65.62;100952.38;5100769;28;20143;-84
2022/03/30 07:52:13;;;;;;;17.83;9.90;;;;;;;12.92;66.51;100958.69;5109171;28;20023;-83
2022/03/30 07:54:39;;;;;;;19.85;9.52;;;;;;;12.91;66.92;100966.47;5093243;28;20082;-83
2022/03/30 07:57:04;;;;;;;17.90;10.13;;;;;;;12.98;67.36;100990.44;5095118;28;20032;-84
2022/03/30 07:59:30;;;;;;;17.55;10.70;;;;;;;13.07;67.04;100983.84;5090396;28;20493;-84
2022/03/30 08:01:58;;;;;;;15.50;9.65;;;;;;;13.03;66.72;100967.06;5091047;28;20035;-84
2022/03/30 08:04:24;;;;;;;34.88;10.23;;;;;;;13.17;67.39;100983.44;5097856;28;20034;-83
2022/03/30 08:06:50;;;;;;;;;;;;;;;13.41;66.11;100978.47;5098695;28;20043;-84
2022/03/30 08:09:16;;;;;;;28.30;10.52;;;;;;;13.08;67.00;100957.69;5108251;28;19998;-84
2022/03/30 08:11:41;;;;;;;30.60;11.43;;;;;;;13.11;67.12;100973.56;5108472;28;20073;-84
2022/03/30 08:14:07;;;;;;;30.95;11.05;;;;;;;13.23;66.61;100981.13;5101145;28;20127;-84
2022/03/30 08:16:33;;;;;;;31.27;10.75;;;;;;;13.08;67.04;100948.91;5100282;28;20024;-85
2022/03/30 08:18:59;;;;;;;29.60;10.35;;;;;;;13.12;67.16;100962.25;5107782;28;20512;-84
2022/03/30 08:24:09;;;;;;;21.27;11.18;;;;;;;13.18;67.10;100974.72;5100776;28;20043;-84
2022/03/30 08:26:35;;;;;;;21.23;10.60;;;;;;;13.12;67.24;100962.25;5090577;28;20024;-83
2022/03/30 08:29:00;;;;;;;24.65;10.77;;;;;;;13.18;67.34;100973.00;5094378;28;20035;-84
2022/03/30 08:31:26;;;;;;;27.42;10.98;;;;;;;13.13;67.14;100965.78;5094329;28;20027;-85
2022/03/30 08:33:52;;;;;;;27.00;10.65;;;;;;;13.15;67.08;100962.38;5093485;28;20433;-85
2022/03/30 08:36:19;;;;;;;24.60;10.40;;;;;;;12.94;67.21;100924.69;5108417;28;20027;-84
2022/03/30 08:38:45;;;;;;;16.65;9.48;;;;;;;13.27;67.15;100969.94;5112051;28;20088;-84
2022/03/30 08:41:10;;;;;;;29.65;10.65;;;;;;;13.06;67.21;100937.44;5111778;28;20039;-84
2022/03/30 08:43:39;;;;;;;18.45;10.00;;;;;;;13.24;67.30;100961.91;5112498;28;20430;-84
2022/03/30 08:46:05;;;;;;;19.02;9.60;;;;;;;13.26;67.63;100964.63;5113715;28;20044;-84
2022/03/30 08:48:31;;;;;;;19.98;10.38;;;;;;;13.08;67.35;100944.59;5113462;28;20122;-84
2022/03/30 08:50:59;;;;;;;17.70;10.05;;;;;;;13.29;67.40;100963.03;5112710;28;20031;-84
2022/03/30 08:53:25;;;;;;;17.98;9.23;;;;;;;13.35;67.13;100957.19;5110006;28;20051;-84
2022/03/30 08:55:51;;;;;;;16.40;9.55;;;;;;;13.26;67.03;100948.88;5093597;28;20512;-84
2022/03/30 08:58:17;;;;;;;19.88;10.35;;;;;;;13.19;67.16;100943.34;5100467;28;20032;-85
2022/03/30 09:00:43;;;;;;;19.75;9.10;;;;;;;13.11;66.93;100913.25;5103394;28;20528;-85
2022/03/30 09:03:09;;;;;;;16.65;9.32;;;;;;;13.23;66.99;100937.41;5092145;28;20455;-84
2022/03/30 09:05:37;;;;;;;17.92;9.05;;;;;;;13.14;67.32;100917.72;5104866;28;20032;-85
2022/03/30 09:08:13;;;;;;;22.08;9.38;;;;;;;13.38;67.34;100947.75;5110494;28;20104;-85
2022/03/30 09:10:42;;;;;;;17.95;9.13;;;;;;;13.37;67.00;100937.16;5110093;28;20103;-85
2022/03/30 09:13:09;;;;;;;17.50;9.43;;;;;;;13.41;67.28;100942.63;5105532;28;20114;-84
2022/03/30 09:15:35;;;;;;;;;;;;;;;13.39;67.17;100936.41;5105708;28;20028;-84
2022/03/30 09:18:06;;;;;;;14.68;8.82;;;;;;;13.40;67.33;100927.72;5099334;28;19947;-85
2022/03/30 09:20:33;;;;;;;14.82;9.15;;;;;;;13.10;67.69;100872.16;5091313;28;20089;-84
2022/03/30 09:23:00;;;;;;;15.32;9.23;;;;;;;13.40;67.25;100921.59;5095720;28;20024;-84
2022/03/30 09:25:31;;;;;;;16.00;8.98;;;;;;;13.34;67.11;100902.94;5092036;27;20028;-85
2022/03/30 09:28:01;;;;;;;11.32;6.57;;;;;;;13.71;65.00;100907.19;5100838;27;20028;-86
2022/03/30 09:30:28;;;;;;;19.65;7.65;;;;;;;14.29;61.63;100864.09;5088534;28;20548;-85
2022/03/30 09:32:56;;;;;;;12.98;7.30;;;;;;;14.03;62.62;100863.91;5091892;27;20060;-85
2022/03/30 09:35:28;;;;;;;17.30;7.53;;;;;;;13.90;64.33;100916.75;5092271;28;20493;-86
2022/03/30 09:38:12;;;;;;;13.80;7.45;;;;;;;13.80;64.96;100918.06;5093367;28;20107;-84
2022/03/30 09:40:48;;;;;;;15.43;8.05;;;;;;;13.70;65.61;100916.78;5074969;28;20490;-85
2022/03/30 09:43:20;;;;;;;13.45;7.85;;;;;;;13.56;66.28;100887.31;5091789;28;20034;-84
2022/03/30 09:45:47;;;;;;;14.13;7.72;;;;;;;13.58;65.99;100888.28;5090003;28;20040;-84
2022/03/30 09:48:20;;;;;;;17.15;8.48;;;;;;;13.65;66.27;100897.31;5092611;28;20626;-84
2022/03/30 09:50:54;;;;;;;15.77;7.95;;;;;;;13.69;66.41;100900.97;5091811;28;20063;-85
2022/03/30 09:53:25;;;;;;;15.15;8.85;;;;;;;13.63;66.59;100880.59;5091175;28;20124;-84
2022/03/30 09:56:09;;;;;;;14.95;8.35;;;;;;;13.73;66.73;100890.66;5091773;28;20024;-84
2022/03/30 09:58:36;;;;;;;18.63;8.38;;;;;;;13.78;66.43;100886.53;5090314;28;20024;-84
2022/03/30 10:01:08;;;;;;;16.85;8.60;;;;;;;13.79;66.40;100883.06;5090445;28;20024;-84
2022/03/30 10:04:08;;;;;;;17.40;8.23;;;;;;;13.73;66.69;100872.28;5091727;28;20032;-83
2022/03/30 10:06:36;;;;;;;16.27;8.77;;;;;;;13.64;66.65;100850.91;5057926;27;20036;-84
2022/03/30 10:09:02;;;;;;;18.88;9.43;;;;;;;13.69;67.12;100846.75;5091083;28;20028;-84
2022/03/30 10:11:29;;;;;;;17.33;9.73;;;;;;;13.77;67.27;100868.09;5089201;28;20020;-84
2022/03/30 10:13:59;;;;;;;18.30;9.40;;;;;;;13.70;67.35;100853.81;5089274;28;20024;-84
2022/03/30 10:16:27;;;;;;;18.08;9.50;;;;;;;13.79;67.70;100863.81;5090217;28;20115;-85
2022/03/30 10:18:53;;;;;;;15.80;9.05;;;;;;;13.80;67.78;100862.94;5098799;28;20038;-85
2022/03/30 10:21:23;;;;;;;15.80;9.50;;;;;;;13.81;67.79;100854.25;5110520;28;20028;-85
2022/03/30 10:24:16;;;;;;;15.35;8.70;;;;;;;13.85;67.64;100848.31;5110300;28;20606;-84
2022/03/30 10:26:50;;;;;;;21.50;9.55;;;;;;;13.89;67.50;100839.72;5109895;28;20027;-85
2022/03/30 10:29:17;;;;;;;22.17;9.43;;;;;;;13.76;67.62;100819.06;5108183;28;20031;-84
2022/03/30 10:32:11;;;;;;;18.23;9.25;;;;;;;13.87;67.83;100837.88;5108916;28;20024;-84
2022/03/30 10:35:01;;;;;;;23.52;9.27;;;;;;;13.90;67.71;100840.63;5110185;28;20504;-84
2022/03/30 10:37:29;;;;;;;19.48;9.40;;;;;;;13.83;67.70;100824.63;5099206;28;20061;-84
2022/03/30 10:40:06;;;;;;;19.25;8.90;;;;;;;13.79;67.89;100822.69;5110390;28;20024;-83
2022/03/30 10:42:53;;;;;;;14.85;8.65;;;;;;;13.91;68.00;100842.44;5111688;28;20569;-84
2022/03/30 10:45:28;;;;;;;17.50;9.00;;;;;;;13.93;68.26;100846.91;5097394;28;20058;-84
2022/03/30 10:48:24;;;;;;;20.60;8.45;;;;;;;13.94;68.15;100839.91;5111168;28;20065;-84
2022/03/30 10:51:01;;;;;;;19.42;8.73;;;;;;;13.84;68.74;100828.13;5110116;28;20036;-84
2022/03/30 10:53:30;;;;;;;20.65;8.73;;;;;;;13.90;68.84;100843.25;5111648;28;20089;-84
2022/03/30 10:56:12;;;;;;;21.55;8.43;;;;;;;13.99;68.84;100831.41;5111426;28;20098;-83
2022/03/30 10:59:01;;;;;;;16.52;8.57;;;;;;;13.90;69.04;100830.13;5111168;28;20023;-83
2022/03/30 11:01:35;;;;;;;18.83;9.63;;;;;;;13.95;68.94;100828.56;5111607;28;20026;-83
2022/03/30 11:04:05;;;;;;;17.58;9.60;;;;;;;14.01;69.05;100831.44;5110177;28;20062;-83
2022/03/30 11:06:34;;;;;;;18.67;9.73;;;;;;;13.97;69.17;100817.31;5111489;28;20104;-83
2022/03/30 11:09:07;;;;;;;20.55;9.82;;;;;;;13.95;70.13;100818.06;5109837;28;20031;-83
2022/03/30 11:11:43;;;;;;;16.48;9.07;;;;;;;13.89;70.05;100805.59;5110277;28;20028;-83
2022/03/30 11:14:36;;;;;;;18.73;10.18;;;;;;;14.00;70.42;100817.44;5111323;28;20028;-83
2022/03/30 11:17:06;;;;;;;19.50;9.93;;;;;;;13.98;70.61;100812.97;5110483;28;20031;-83
2022/03/30 11:19:47;;;;;;;17.25;9.98;;;;;;;13.98;70.57;100816.47;5109831;28;20020;-83
2022/03/30 11:22:17;;;;;;;16.55;9.10;;;;;;;13.95;70.85;100808.50;5090157;28;20028;-83
2022/03/30 11:24:44;;;;;;;19.77;10.23;;;;;;;13.91;70.56;100796.06;5089183;28;20020;-83
2022/03/30 11:27:10;;;;;;;17.95;9.70;;;;;;;14.05;70.36;100809.75;5089399;28;20510;-83
2022/03/30 11:29:47;;;;;;;22.38;9.77;;;;;;;14.05;70.69;100808.03;5090946;28;20020;-83
2022/03/30 11:32:37;;;;;;;;;;;;;;;14.08;70.29;100806.38;5091463;28;20119;-81
2022/03/30 11:35:13;;;;;;;15.25;8.90;;;;;;;14.01;71.05;100794.69;5083032;28;19912;-83